Time;durP1;ratioP1;P1;durP2;ratioP2;P2;SDS_P1;SDS_P2;PMS_P1;PMS_P2;Temp;Humidity;BMP_temperature;BMP_pressure;BME280_temperature;BME280_humidity;BME280_pressure;Samples;Min_cycle;Max_cycle;Signal;HPM_P1;HPM_P2
2023/08/10 00:01:26;;;;;;;;;;;;;;;12.59;100.00;102227.41;5093074;28;19916;-71
2023/08/10 00:03:51;;;;;;;;;;;;;;;12.60;100.00;102237.13;5094626;28;20372;-72
2023/08/10 00:06:16;;;;;;;;;;;;;;;12.60;100.00;102230.91;5096940;28;19931;-72
2023/08/10 00:08:41;;;;;;;;;;;;;;;12.56;100.00;102235.66;5097169;28;19923;-72
2023/08/10 00:11:07;;;;;;;;;;;;;;;12.53;100.00;102234.06;5096796;28;19924;-72
2023/08/10 00:13:32;;;;;;;;;;;;;;;12.48;100.00;102235.38;5096673;28;19927;-71
2023/08/10 00:15:57;;;;;;;;;;;;;;;12.44;100.00;102225.91;5096740;28;19916;-71
2023/08/10 00:18:23;;;;;;;;;;;;;;;12.41;100.00;102227.00;5096833;28;20030;-71
2023/08/10 00:20:48;;;;;;;;;;;;;;;12.40;100.00;102225.28;5096525;28;20462;-72
2023/08/10 00:23:13;;;;;;;;;;;;;;;12.42;100.00;102225.16;5096644;28;19926;-71
2023/08/10 00:25:39;;;;;;;;;;;;;;;12.45;100.00;102230.28;5096973;28;19924;-71
2023/08/10 00:28:04;;;;;;;;;;;;;;;12.48;100.00;102224.69;5096259;28;19922;-71
2023/08/10 00:30:30;;;;;;;;;;;;;;;12.48;100.00;102227.38;5096764;28;19977;-71
2023/08/10 00:32:55;;;;;;;;;;;;;;;12.47;100.00;102225.69;5096274;28;19989;-71
2023/08/10 00:35:21;;;;;;;;;;;;;;;12.45;100.00;102222.25;5096705;28;20360;-71
2023/08/10 00:37:46;;;;;;;;;;;;;;;12.44;100.00;102224.09;5096670;28;19926;-72
2023/08/10 00:40:12;;;;;;;;;;;;;;;12.43;100.00;102225.06;5096193;28;20336;-72
2023/08/10 00:42:38;;;;;;;;;;;;;;;12.38;100.00;102221.91;5096321;28;19931;-73
2023/08/10 00:45:03;;;;;;;;;;;;;;;12.34;100.00;102229.25;5096299;28;19920;-72
2023/08/10 00:47:28;;;;;;;;;;;;;;;12.29;100.00;102235.94;5097303;28;19927;-72
2023/08/10 00:49:54;;;;;;;;;;;;;;;12.24;100.00;102238.09;5096314;28;19928;-73
2023/08/10 00:52:19;;;;;;;;;;;;;;;12.18;100.00;102234.06;5078160;28;20299;-72
2023/08/10 00:54:44;;;;;;;;;;;;;;;12.13;100.00;102228.25;5096257;28;19973;-72
2023/08/10 00:57:10;;;;;;;;;;;;;;;12.09;100.00;102232.09;5095778;28;20717;-72
2023/08/10 00:59:37;;;;;;;;;;;;;;;12.06;100.00;102232.31;5096528;28;19920;-72
2023/08/10 01:02:03;;;;;;;;;;;;;;;12.01;100.00;102239.84;5095775;28;19932;-72
2023/08/10 01:04:28;;;;;;;;;;;;;;;11.97;100.00;102248.06;5095941;28;19922;-72
2023/08/10 01:07:02;;;;;;;;;;;;;;;11.93;100.00;102246.59;5095664;28;19981;-71
2023/08/10 01:09:44;;;;;;;;;;;;;;;11.89;100.00;102239.75;5096160;28;19974;-71
2023/08/10 01:12:12;;;;;;;;;;;;;;;11.89;100.00;102244.22;5095498;28;19916;-71
2023/08/10 01:14:42;;;;;;;;;;;;;;;11.89;100.00;102237.06;5095536;28;19924;-71
2023/08/10 01:17:12;;;;;;;;;;;;;;;11.91;100.00;102236.97;5077199;28;19920;-74
2023/08/10 01:19:38;;;;;;;;;;;;;;;11.92;100.00;102236.84;5095921;28;19938;-73
2023/08/10 01:22:07;;;;;;;;;;;;;;;11.92;100.00;102236.84;5095613;28;19920;-73
2023/08/10 01:24:38;;;;;;;;;;;;;;;11.89;100.00;102237.06;5095928;28;20389;-71
2023/08/10 01:27:04;;;;;;;;;;;;;;;11.84;100.00;102233.91;5095455;28;19920;-71
2023/08/10 01:29:30;;;;;;;;;;;;;;;11.82;100.00;102235.81;5095861;28;20433;-73
2023/08/10 01:31:55;;;;;;;;;;;;;;;11.77;100.00;102230.81;5077186;28;19920;-74
2023/08/10 01:34:20;;;;;;;;;;;;;;;11.74;100.00;102240.88;5095794;28;20367;-72
2023/08/10 01:36:46;;;;;;;;;;;;;;;11.70;100.00;102232.22;5096115;28;19920;-72
2023/08/10 01:39:11;;;;;;;;;;;;;;;11.68;100.00;102233.34;5095030;28;19920;-72
2023/08/10 01:41:36;;;;;;;;;;;;;;;11.62;100.00;102230.13;5077823;28;19978;-72
2023/08/10 01:44:01;;;;;;;;;;;;;;;11.60;100.00;102229.41;5095132;28;19970;-72
2023/08/10 01:46:27;;;;;;;;;;;;;;;11.57;100.00;102221.63;5095425;28;19920;-72
2023/08/10 01:48:54;;;;;;;;;;;;;;;11.52;100.00;102221.09;5095314;28;20352;-72
2023/08/10 01:51:22;;;;;;;;;;;;;;;11.49;100.00;102228.47;5095011;28;19923;-73
2023/08/10 01:53:48;;;;;;;;;;;;;;;11.43;100.00;102219.94;5094960;28;19920;-71
2023/08/10 01:56:13;;;;;;;;;;;;;;;11.40;100.00;102222.84;5094770;28;20360;-72
2023/08/10 01:58:39;;;;;;;;;;;;;;;11.37;100.00;102220.41;5095142;28;19916;-71
2023/08/10 02:01:04;;;;;;;;;;;;;;;11.33;100.00;102220.72;5094440;28;19982;-71
2023/08/10 02:03:29;;;;;;;;;;;;;;;11.28;100.00;102215.72;5095111;28;19935;-71
2023/08/10 02:05:55;;;;;;;;;;;;;;;11.26;100.00;102223.84;5095100;28;19969;-71
2023/08/10 02:08:20;;;;;;;;;;;;;;;11.25;100.00;102232.78;5094515;28;19931;-72
2023/08/10 02:10:45;;;;;;;;;;;;;;;11.24;100.00;102232.91;5095049;28;20370;-72
2023/08/10 02:13:10;;;;;;;;;;;;;;;11.21;100.00;102231.31;5094503;28;20357;-71
2023/08/10 02:15:36;;;;;;;;;;;;;;;11.20;100.00;102231.44;5094888;28;19924;-71
2023/08/10 02:18:01;;;;;;;;;;;;;;;11.20;100.00;102228.78;5093928;28;19931;-72
2023/08/10 02:20:27;;;;;;;;;;;;;;;11.20;100.00;102236.75;5094489;28;19928;-71
2023/08/10 02:22:52;;;;;;;;;;;;;;;11.19;100.00;102230.56;5094428;28;19927;-71
2023/08/10 02:25:18;;;;;;;;;;;;;;;11.18;100.00;102230.66;5094083;28;20387;-72
2023/08/10 02:27:44;;;;;;;;;;;;;;;11.16;100.00;102227.28;5075881;28;20361;-72
2023/08/10 02:30:10;;;;;;;;;;;;;;;11.15;100.00;102234.44;5075993;28;19927;-72
2023/08/10 02:32:35;;;;;;;;;;;;;;;11.13;100.00;102233.66;5094445;28;19920;-72
2023/08/10 02:35:01;;;;;;;;;;;;;;;11.14;100.00;102229.19;5094549;28;19916;-72
2023/08/10 02:37:26;;;;;;;;;;;;;;;11.12;100.00;102234.63;5093996;28;19920;-72
2023/08/10 02:39:51;;;;;;;;;;;;;;;11.08;100.00;102241.97;5094355;28;19920;-72
2023/08/10 02:42:16;;;;;;;;;;;;;;;11.07;100.00;102231.44;5093946;28;19924;-72
2023/08/10 02:44:43;;;;;;;;;;;;;;;11.06;100.00;102237.72;5094347;28;19981;-72
2023/08/10 02:47:08;;;;;;;;;;;;;;;11.04;100.00;102231.66;5093924;28;19920;-73
2023/08/10 02:49:33;;;;;;;;;;;;;;;11.02;100.00;102239.75;5094072;28;20017;-72
2023/08/10 02:51:59;;;;;;;;;;;;;;;11.04;100.00;102250.31;5094013;28;20034;-72
2023/08/10 02:54:24;;;;;;;;;;;;;;;11.06;100.00;102238.59;5094071;28;19939;-72
2023/08/10 02:56:49;;;;;;;;;;;;;;;11.11;100.00;102247.09;5094158;28;19916;-72
2023/08/10 02:59:14;;;;;;;;;;;;;;;11.18;100.00;102249.31;5093575;28;19920;-72
2023/08/10 03:01:39;;;;;;;;;;;;;;;11.21;100.00;102243.78;5093672;28;20018;-72
2023/08/10 03:04:05;;;;;;;;;;;;;;;11.21;100.00;102247.31;5075751;28;19920;-72
2023/08/10 03:06:31;;;;;;;;;;;;;;;11.18;100.00;102247.53;5074996;28;19920;-72
2023/08/10 03:08:56;;;;;;;;;;;;;;;11.17;100.00;102240.50;5093450;28;19921;-72
2023/08/10 03:11:23;;;;;;;;;;;;;;;11.15;100.00;102242.41;5074760;28;20407;-72
2023/08/10 03:13:48;;;;;;;;;;;;;;;11.11;100.00;102240.94;5093697;28;19947;-72
2023/08/10 03:16:13;;;;;;;;;;;;;;;11.09;100.00;102233.03;5093277;28;20364;-72
2023/08/10 03:18:39;;;;;;;;;;;;;;;11.10;100.00;102231.22;5093546;28;20368;-72
2023/08/10 03:21:04;;;;;;;;;;;;;;;11.08;100.00;102231.34;5093543;28;19924;-72
2023/08/10 03:23:30;;;;;;;;;;;;;;;11.07;100.00;102234.94;5075077;28;19920;-72
2023/08/10 03:25:55;;;;;;;;;;;;;;;11.08;100.00;102235.81;5093568;28;19921;-71
2023/08/10 03:28:20;;;;;;;;;;;;;;;11.07;100.00;102234.94;5093140;28;19969;-72
2023/08/10 03:30:46;;;;;;;;;;;;;;;11.07;100.00;102239.44;5093476;28;20019;-72
2023/08/10 03:33:11;;;;;;;;;;;;;;;11.08;100.00;102238.47;5092953;28;19927;-72
2023/08/10 03:35:36;;;;;;;;;;;;;;;11.09;100.00;102241.03;5093124;28;19927;-72
2023/08/10 03:38:01;;;;;;;;;;;;;;;11.13;100.00;102233.66;5093303;28;19923;-72
2023/08/10 03:40:27;;;;;;;;;;;;;;;11.20;100.00;102232.28;5092984;28;19968;-71
2023/08/10 03:42:52;;;;;;;;;;;;;;;11.24;100.00;102236.44;5075226;28;19943;-72
2023/08/10 03:45:17;;;;;;;;;;;;;;;11.31;100.00;102244.81;5092823;28;19993;-71
2023/08/10 03:47:42;;;;;;;;;;;;;;;11.37;100.00;102236.38;5093201;28;20300;-72
2023/08/10 03:50:08;;;;;;;;;;;;;;;11.44;100.00;102229.66;5075207;28;20010;-72
2023/08/10 03:52:33;;;;;;;;;;;;;;;11.51;100.00;102230.09;5092726;28;20015;-72
2023/08/10 03:54:59;;;;;;;;;;;;;;;11.59;100.00;102233.03;5093206;28;19916;-72
2023/08/10 03:57:24;;;;;;;;;;;;;;;11.65;100.00;102235.25;5092732;28;19942;-72
2023/08/10 03:59:50;;;;;;;;;;;;;;;11.74;100.00;102240.88;5093154;28;19978;-72
2023/08/10 04:02:15;;;;;;;;;;;;;;;11.81;100.00;102245.63;5074771;28;19955;-72
2023/08/10 04:04:40;;;;;;;;;;;;;;;11.90;100.00;102248.59;5093094;28;20280;-72
2023/08/10 04:07:07;;;;;;;;;;;;;;;11.98;100.00;102247.09;5093215;28;19973;-72
2023/08/10 04:09:32;;;;;;;;;;;;;;;12.06;100.00;102240.31;5074772;28;19971;-72
2023/08/10 04:11:58;;;;;;;;;;;;;;;12.13;100.00;102250.41;5074576;28;20372;-72
2023/08/10 04:14:23;;;;;;;;;;;;;;;12.20;100.00;102248.16;5092315;28;19920;-72
2023/08/10 04:16:48;;;;;;;;;;;;;;;12.26;100.00;102249.53;5092812;28;19920;-72
2023/08/10 04:19:13;;;;;;;;;;;;;;;12.30;100.00;102246.50;5093155;28;19924;-72
2023/08/10 04:21:39;;;;;;;;;;;;;;;12.35;100.00;102244.31;5092481;28;20398;-72
2023/08/10 04:24:05;;;;;;;;;;;;;;;12.42;100.00;102241.19;5093179;28;19924;-72
2023/08/10 04:26:30;;;;;;;;;;;;;;;12.48;100.00;102236.25;5092737;28;19920;-72
2023/08/10 04:28:55;;;;;;;;;;;;;;;12.54;100.00;102237.59;5092923;28;19928;-72
2023/08/10 04:31:20;;;;;;;;;;;;;;;12.61;100.00;102236.13;5092427;28;19921;-72
2023/08/10 04:33:46;;;;;;;;;;;;;;;12.65;100.00;102237.59;5092412;28;19920;-72
2023/08/10 04:36:11;;;;;;;;;;;;;;;12.70;100.00;102235.44;5092758;28;19920;-72
2023/08/10 04:38:36;;;;;;;;;;;;;;;12.75;100.00;102234.22;5092540;28;19967;-72
2023/08/10 04:41:01;;;;;;;;;;;;;;;12.80;100.00;102237.41;5092727;28;19927;-72
2023/08/10 04:43:27;;;;;;;;;;;;;;;12.85;100.00;102240.53;5092444;28;20367;-72
2023/08/10 04:45:52;;;;;;;;;;;;;;;12.90;100.00;102238.38;5093169;28;19986;-72
2023/08/10 04:48:17;;;;;;;;;;;;;;;12.94;100.00;102233.63;5092480;28;19924;-71
2023/08/10 04:50:42;;;;;;;;;;;;;;;12.98;100.00;102235.09;5094000;28;19920;-71
2023/08/10 04:53:08;;;;;;;;;;;;;;;13.02;100.00;102229.38;5096585;28;20283;-72
2023/08/10 04:55:33;;;;;;;;;;;;;;;13.07;100.00;102231.69;5096164;28;19972;-72
2023/08/10 04:57:58;;;;;;;;;;;;;;;13.13;100.00;102225.84;5096051;28;20291;-72
2023/08/10 05:00:23;;;;;;;;;;;;;;;13.17;100.00;102223.81;5095754;28;20272;-72
2023/08/10 05:02:50;;;;;;;;;;;;;;;13.22;100.00;102216.25;5096328;28;19920;-72
2023/08/10 05:05:16;;;;;;;;;;;;;;;13.27;100.00;102223.91;5096265;28;20379;-72
2023/08/10 05:07:41;;;;;;;;;;;;;;;13.31;100.00;102223.53;5095799;28;19920;-71
2023/08/10 05:10:06;;;;;;;;;;;;;;;13.37;100.00;102233.75;5096516;28;19928;-72
2023/08/10 05:12:34;;;;;;;;;;;;;;;13.40;100.00;102225.53;5095766;28;20417;-72
2023/08/10 05:14:59;;;;;;;;;;;;;;;13.46;100.00;102226.81;5078183;28;20452;-72
2023/08/10 05:17:24;;;;;;;;;;;;;;;13.50;100.00;102227.44;5095352;28;20014;-72
2023/08/10 05:19:50;;;;;;;;;;;;;;;13.53;100.00;102224.53;5096673;28;19916;-71
2023/08/10 05:22:15;;;;;;;;;;;;;;;13.57;100.00;102232.16;5096229;28;19920;-72
2023/08/10 05:24:40;;;;;;;;;;;;;;;13.62;100.00;102228.28;5095336;28;19970;-72
2023/08/10 05:27:05;;;;;;;;;;;;;;;13.64;100.00;102227.16;5095561;28;19924;-72
2023/08/10 05:29:31;;;;;;;;;;;;;;;13.68;100.00;102233.13;5095217;28;19920;-72
2023/08/10 05:31:56;;;;;;;;;;;;;;;13.72;100.00;102227.38;5077611;28;19920;-71
2023/08/10 05:34:21;;;;;;;;;;;;;;;13.78;100.00;102230.53;5095648;28;20387;-72
2023/08/10 05:36:46;;;;;;;;;;;;;;;13.83;100.00;102233.69;5077028;28;19927;-71
2023/08/10 05:39:12;;;;;;;;;;;;;;;13.87;100.00;102235.13;5095261;28;19974;-71
2023/08/10 05:41:37;;;;;;;;;;;;;;;13.89;100.00;102236.69;5095125;28;19928;-71
2023/08/10 05:44:02;;;;;;;;;;;;;;;13.93;100.00;102231.94;5095498;28;20256;-71
2023/08/10 05:46:28;;;;;;;;;;;;;;;13.97;100.00;102235.22;5076848;28;20422;-76
2023/08/10 05:48:53;;;;;;;;;;;;;;;13.99;100.00;102231.44;5105162;28;20279;-73
2023/08/10 05:51:18;;;;;;;;;;;;;;;14.04;100.00;102236.41;5112981;28;20295;-72
2023/08/10 05:53:43;;;;;;;;;;;;;;;14.07;100.00;102223.59;5112675;28;20014;-72
2023/08/10 05:56:09;;;;;;;;;;;;;;;14.12;100.00;102236.59;5113273;28;19966;-72
2023/08/10 05:58:35;;;;;;;;;;;;;;;14.18;100.00;102229.88;5112371;28;19930;-72
2023/08/10 06:01:01;;;;;;;;;;;;;;;14.25;100.00;102228.41;5111374;28;19920;-72
2023/08/10 06:03:26;;;;;;;;;;;;;;;14.33;100.00;102225.94;5113430;28;19926;-74
2023/08/10 06:05:53;;;;;;;;;;;;;;;14.39;100.00;102228.09;5112309;28;19923;-73
2023/08/10 06:08:18;;;;;;;;;;;;;;;14.45;100.00;102226.69;5112344;28;19924;-72
2023/08/10 06:10:44;;;;;;;;;;;;;;;14.52;100.00;102227.88;5112181;28;19916;-72
2023/08/10 06:13:09;;;;;;;;;;;;;;;14.60;100.00;102227.22;5112333;28;20280;-72
2023/08/10 06:15:34;;;;;;;;;;;;;;;14.63;100.00;102227.84;5112160;28;20284;-72
2023/08/10 06:17:59;;;;;;;;;;;;;;;14.69;100.00;102221.13;5112782;28;20343;-72
2023/08/10 06:20:27;;;;;;;;;;;;;;;14.76;100.00;102230.31;5112852;28;20291;-72
2023/08/10 06:22:54;;;;;;;;;;;;;;;14.81;100.00;102230.75;5111989;28;19976;-72
2023/08/10 06:25:19;;;;;;;;;;;;;;;14.92;100.00;102237.88;5111700;28;19924;-72
2023/08/10 06:27:44;;;;;;;;;;;;;;;15.01;100.00;102236.22;5111832;28;20272;-72
2023/08/10 06:30:10;;;;;;;;;;;;;;;15.11;100.00;102236.28;5093907;28;19973;-72
2023/08/10 06:32:36;;;;;;;;;;;;;;;15.22;100.00;102235.31;5111363;28;19920;-72
2023/08/10 06:35:02;;;;;;;;;;;;;;;15.31;100.00;102237.19;5111909;28;19924;-72
2023/08/10 06:37:28;;;;;;;;;;;;;;;15.42;100.00;102239.75;5111425;28;19946;-71
2023/08/10 06:39:53;;;;;;;;;;;;;;;15.55;100.00;102246.69;5111648;28;19931;-70
2023/08/10 06:42:18;;;;;;;;;;;;;;;15.66;100.00;102235.88;5112072;28;19919;-70
2023/08/10 06:44:44;;;;;;;;;;;;;;;15.79;100.00;102238.31;5111939;28;19920;-71
2023/08/10 06:47:10;;;;;;;;;;;;;;;15.88;100.00;102237.47;5111798;28;20300;-74
2023/08/10 06:49:36;;;;;;;;;;;;;;;15.98;100.00;102237.47;5111901;28;19920;-71
2023/08/10 06:52:03;;;;;;;;;;;;;;;16.07;100.00;102236.63;5111611;28;20055;-71
2023/08/10 06:54:28;;;;;;;;;;;;;;;16.16;100.00;102240.31;5111887;28;20403;-71
2023/08/10 06:56:53;;;;;;;;;;;;;;;16.29;100.00;102234.66;5111176;28;20039;-71
2023/08/10 06:59:19;;;;;;;;;;;;;;;16.40;100.00;102235.31;5111659;28;19931;-71
2023/08/10 07:01:44;;;;;;;;;;;;;;;16.55;100.00;102232.19;5111614;28;20309;-71
2023/08/10 07:04:09;;;;;;;;;;;;;;;16.63;100.00;102232.34;5111613;28;19924;-71
2023/08/10 07:06:34;;;;;;;;;;;;;;;16.71;100.00;102228.91;5108994;28;19935;-70
2023/08/10 07:09:00;;;;;;;;;;;;;;;16.85;100.00;102230.28;5103202;28;19965;-71
2023/08/10 07:11:25;;;;;;;;;;;;;;;16.89;100.00;102220.97;5075050;28;19920;-71
2023/08/10 07:13:50;;;;;;;;;;;;;;;16.98;100.00;102225.44;5092385;28;20044;-71
2023/08/10 07:16:16;;;;;;;;;;;;;;;17.07;100.00;102229.09;5093701;28;19927;-70
2023/08/10 07:18:41;;;;;;;;;;;;;;;17.15;100.00;102228.34;5099448;28;19931;-70
2023/08/10 07:21:06;;;;;;;;;;;;;;;17.31;100.00;102231.25;5113635;28;19923;-71
2023/08/10 07:23:32;;;;;;;;;;;;;;;17.42;100.00;102230.19;5095467;28;19927;-70
2023/08/10 07:25:57;;;;;;;;;;;;;;;17.45;100.00;102228.06;5094936;28;19920;-70
2023/08/10 07:28:23;;;;;;;;;;;;;;;17.54;100.00;102238.88;5113961;28;19916;-70
2023/08/10 07:30:49;;;;;;;;;;;;;;;17.60;100.00;102241.84;5113254;28;20399;-70
2023/08/10 07:33:14;;;;;;;;;;;;;;;17.63;100.00;102240.69;5113609;28;20355;-70
2023/08/10 07:35:40;;;;;;;;;;;;;;;17.65;100.00;102236.00;5095661;28;19919;-70
2023/08/10 07:38:05;;;;;;;;;;;;;;;17.69;100.00;102234.72;5095125;28;19920;-71
2023/08/10 07:40:30;;;;;;;;;;;;;;;17.74;100.00;102240.47;5113594;28;19997;-70
2023/08/10 07:42:56;;;;;;;;;;;;;;;17.84;100.00;102239.53;5113276;28;19951;-72
2023/08/10 07:45:21;;;;;;;;;;;;;;;17.90;100.00;102238.97;5113700;28;19920;-72
2023/08/10 07:47:46;;;;;;;;;;;;;;;17.91;100.00;102243.34;5113015;28;19916;-71
2023/08/10 07:50:12;;;;;;;;;;;;;;;17.96;100.00;102235.69;5113392;28;20009;-72
2023/08/10 07:52:37;;;;;;;;;;;;;;;17.94;100.00;102243.91;5113454;28;19927;-72
2023/08/10 07:55:02;;;;;;;;;;;;;;;17.95;100.00;102239.38;5113027;28;20294;-72
2023/08/10 07:57:29;;;;;;;;;;;;;;;18.08;100.00;102247.91;5101134;28;20391;-72
2023/08/10 07:59:54;;;;;;;;;;;;;;;18.22;100.00;102243.81;5096428;28;20388;-72
2023/08/10 08:02:19;;;;;;;;;;;;;;;18.33;100.00;102251.66;5092284;28;19920;-78
2023/08/10 08:04:44;;;;;;;;;;;;;;;18.38;100.00;102245.78;5093122;28;20379;-78
2023/08/10 08:07:10;;;;;;;;;;;;;;;18.44;100.00;102252.41;5092010;28;20364;-77
2023/08/10 08:09:35;;;;;;;;;;;;;;;18.41;100.00;102244.66;5092501;28;19927;-76
2023/08/10 08:12:00;;;;;;;;;;;;;;;18.41;100.00;102258.13;5073916;28;20011;-79
2023/08/10 08:14:25;;;;;;;;;;;;;;;18.41;100.00;102245.47;5092113;28;19927;-79
2023/08/10 08:16:51;;;;;;;;;;;;;;;18.42;100.00;102254.41;5092131;28;19943;-77
2023/08/10 08:19:17;;;;;;;;;;;;;;;18.38;100.00;102247.66;5092492;28;20275;-75
2023/08/10 08:21:46;;;;;;;;;;;;;;;18.53;100.00;102248.75;5092131;28;19920;-77
2023/08/10 08:24:11;;;;;;;;;;;;;;;18.55;100.00;102251.31;5092264;28;20007;-77
2023/08/10 08:26:38;;;;;;;;;;;;;;;18.63;100.00;102252.22;5078435;28;20018;-75
2023/08/10 08:29:03;;;;;;;;;;;;;;;18.61;100.00;102251.50;5095823;28;19920;-76
2023/08/10 08:31:28;;;;;;;;;;;;;;;18.65;100.00;102252.06;5096284;28;19990;-76
2023/08/10 08:33:54;;;;;;;;;;;;;;;18.66;100.00;102249.19;5095296;28;19989;-79
2023/08/10 08:36:19;;;;;;;;;;;;;;;18.76;100.00;102246.38;5095786;28;19916;-80
2023/08/10 08:38:44;;;;;;;;;;;;;;;18.84;100.00;102253.69;5078053;28;19917;-80
2023/08/10 08:41:10;;;;;;;;;;;;;;;18.99;100.00;102254.81;5095493;28;19930;-81
2023/08/10 08:43:36;;;;;;;;;;;;;;;19.08;100.00;102254.84;5095944;28;19963;-80
2023/08/10 08:46:04;;;;;;;;;;;;;;;19.09;100.00;102261.94;5096482;28;19928;-81
2023/08/10 08:48:29;;;;;;;;;;;;;;;19.16;100.00;102252.19;5096792;28;19986;-82
2023/08/10 08:50:55;;;;;;;;;;;;;;;19.28;100.00;102250.88;5096769;28;19924;-81
2023/08/10 08:53:21;;;;;;;;;;;;;;;19.38;100.00;102254.31;5095819;28;20003;-78
2023/08/10 08:55:46;;;;;;;;;;;;;;;19.44;100.00;102254.69;5096913;28;19943;-77
2023/08/10 08:58:14;;;;;;;;;;;;;;;19.50;100.00;102251.31;5077335;28;20009;-79
2023/08/10 09:00:40;;;;;;;;;;;;;;;19.49;100.00;102246.91;5078910;28;19997;-77
2023/08/10 09:03:06;;;;;;;;;;;;;;;19.57;100.00;102252.31;5095468;28;19920;-77
2023/08/10 09:05:31;;;;;;;;;;;;;;;19.73;100.00;102255.09;5095536;28;20265;-78
2023/08/10 09:07:56;;;;;;;;;;;;;;;19.81;100.00;102251.59;5077178;28;20455;-78
2023/08/10 09:10:22;;;;;;;;;;;;;;;19.88;100.00;102246.34;5095616;28;19917;-77
2023/08/10 09:12:47;;;;;;;;;;;;;;;19.87;100.00;102239.25;5095501;28;19916;-75
2023/08/10 09:15:17;;;;;;;;;;;;;;;19.92;100.00;102234.22;5077365;28;19920;-77
2023/08/10 09:17:46;;;;;;;;;;;;;;;19.97;100.00;102236.41;5073802;28;20318;-77
2023/08/10 09:20:16;;;;;;;;;;;;;;;20.07;100.00;102247.91;5074856;28;19986;-77
2023/08/10 09:22:41;;;;;;;;;;;;;;;20.15;100.00;102245.19;5075423;28;19923;-77
2023/08/10 09:25:07;;;;;;;;;;;;;;;20.28;100.00;102243.88;5074653;28;19916;-78
2023/08/10 09:27:32;;;;;;;;;;;;;;;20.33;100.00;102241.50;5074951;28;19927;-78
2023/08/10 09:29:59;;;;;;;;;;;;;;;20.34;100.00;102243.19;5074612;28;20288;-78
2023/08/10 09:32:24;;;;;;;;;;;;;;;20.32;100.00;102246.06;5075674;28;19916;-75
2023/08/10 09:34:50;;;;;;;;;;;;;;;20.27;100.00;102248.41;5077657;28;19921;-75
2023/08/10 09:37:15;;;;;;;;;;;;;;;20.26;100.00;102249.44;5077183;28;19932;-72
2023/08/10 09:39:40;;;;;;;;;;;;;;;20.30;100.00;102250.75;5076102;28;20008;-72
2023/08/10 09:42:06;;;;;;;;;;;;;;;20.24;100.00;102248.75;5076782;28;19938;-73
2023/08/10 09:44:42;;;;;;;;;;;;;;;20.29;100.00;102249.09;5077376;28;19963;-75
2023/08/10 09:47:07;;;;;;;;;;;;;;;20.21;100.00;102254.50;5076587;28;19916;-72
2023/08/10 09:49:32;;;;;;;;;;;;;;;20.19;100.00;102254.66;5074469;28;20365;-73
2023/08/10 09:51:59;;;;;;;;;;;;;;;20.13;100.00;102259.91;5072729;28;19990;-74
2023/08/10 09:54:24;;;;;;;;;;;;;;;20.10;100.00;102252.13;5073057;28;19927;-72
2023/08/10 09:56:50;;;;;;;;;;;;;;;20.12;100.00;102250.94;5074407;28;19921;-73
2023/08/10 09:59:15;;;;;;;;;;;;;;;20.19;100.00;102254.66;5073740;28;19920;-72
2023/08/10 10:01:41;;;;;;;;;;;;;;;20.21;100.00;102249.09;5073037;28;20225;-73
2023/08/10 10:04:06;;;;;;;;;;;;;;;20.31;100.00;102259.75;5073482;28;19920;-73
2023/08/10 10:06:32;;;;;;;;;;;;;;;20.41;100.00;102257.72;5074248;28;19973;-72
2023/08/10 10:08:58;;;;;;;;;;;;;;;20.63;100.00;102255.31;5074359;28;19929;-72
2023/08/10 10:11:24;;;;;;;;;;;;;;;20.78;100.00;102246.34;5073777;28;19917;-72
2023/08/10 10:13:50;;;;;;;;;;;;;;;20.92;100.00;102247.50;5074022;28;19935;-72
2023/08/10 10:16:16;;;;;;;;;;;;;;;21.17;100.00;102244.72;5074023;28;19966;-72
2023/08/10 10:18:42;;;;;;;;;;;;;;;21.32;100.00;102247.53;5085858;28;20363;-72
2023/08/10 10:21:08;;;;;;;;;;;;;;;21.49;100.00;102242.88;5093759;28;19920;-73
2023/08/10 10:23:39;;;;;;;;;;;;;;;21.57;100.00;102242.00;5094321;28;20413;-72
2023/08/10 10:26:08;;;;;;;;;;;;;;;21.78;100.00;102244.06;5093536;28;19916;-74
2023/08/10 10:28:33;;;;;;;;;;;;;;;21.91;100.00;102243.47;5076087;28;20286;-73
2023/08/10 10:30:58;;;;;;;;;;;;;;;22.14;99.53;102236.19;5094179;28;20117;-71
2023/08/10 10:33:25;;;;;;;;;;;;;;;22.39;95.77;102238.69;5093384;28;20329;-73
2023/08/10 10:36:05;;;;;;;;;;;;;;;22.56;84.57;102231.25;5075779;28;20276;-72
2023/08/10 10:38:31;;;;;;;;;;;;;;;22.58;100.00;102233.78;5093897;28;19916;-72
2023/08/10 10:41:06;;;;;;;;;;;;;;;22.70;85.21;102238.56;5093499;28;19931;-72
2023/08/10 10:43:32;;;;;;;;;;;;;;;22.88;95.65;102243.63;5093917;28;19923;-71
2023/08/10 10:45:57;;;;;;;;;;;;;;;23.04;87.42;102236.34;5075409;28;19920;-71
2023/08/10 10:48:32;;;;;;;;;;;;;;;23.29;82.21;102244.19;5092134;28;19924;-71
2023/08/10 10:50:57;;;;;;;;;;;;;;;23.48;86.84;102237.31;5093557;28;19926;-71
2023/08/10 10:53:23;;;;;;;;;;;;;;;23.66;81.99;102234.16;5092917;28;20026;-71
2023/08/10 10:55:48;;;;;;;;;;;;;;;23.69;78.44;102241.94;5093118;28;19969;-71
2023/08/10 10:58:15;;;;;;;;;;;;;;;23.63;69.77;102231.84;5074689;28;19928;-71
2023/08/10 11:00:41;;;;;;;;;;;;;;;23.85;80.87;102233.56;5092976;28;20411;-71
2023/08/10 11:03:08;;;;;;;;;;;;;;;24.08;81.33;102236.09;5092914;28;19916;-71
2023/08/10 11:05:34;;;;;;;;;;;;;;;24.33;72.13;102237.53;5093156;28;19923;-72
2023/08/10 11:08:03;;;;;;;;;;;;;;;24.57;72.25;102236.25;5092728;28;19920;-71
2023/08/10 11:10:29;;;;;;;;;;;;;;;24.77;73.77;102229.09;5092595;28;19924;-72
2023/08/10 11:12:54;;;;;;;;;;;;;;;24.89;69.09;102231.25;5092583;28;19927;-71
2023/08/10 11:15:19;;;;;;;;;;;;;;;25.06;72.16;102229.03;5092281;28;19927;-71
2023/08/10 11:17:52;;;;;;;;;;;;;;;25.30;67.51;102225.81;5092300;28;19943;-71
2023/08/10 11:20:18;;;;;;;;;;;;;;;25.64;70.62;102232.19;5092416;28;19924;-71
2023/08/10 11:22:44;;;;;;;;;;;;;;;26.02;61.55;102238.97;5092629;28;19920;-73
2023/08/10 11:25:11;;;;;;;;;;;;;;;26.35;60.22;102236.28;5106504;28;20048;-70
2023/08/10 11:27:37;;;;;;;;;;;;;;;26.55;58.67;102219.03;5113182;28;19916;-71
2023/08/10 11:30:04;;;;;;;;;;;;;;;26.60;59.19;102232.88;5112938;28;19919;-73
2023/08/10 11:32:29;;;;;;;;;;;;;;;26.69;59.56;102223.47;5112231;28;20019;-72
2023/08/10 11:34:57;;;;;;;;;;;;;;;26.57;61.62;102225.97;5112656;28;20012;-70
2023/08/10 11:37:32;;;;;;;;;;;;;;;26.42;56.11;102228.06;5112317;28;19927;-72
2023/08/10 11:40:10;;;;;;;;;;;;;;;26.07;61.72;102217.41;5112364;28;19916;-72
2023/08/10 11:42:36;;;;;;;;;;;;;;;26.05;61.12;102216.78;5112813;28;19915;-74
2023/08/10 11:45:06;;;;;;;;;;;;;;;26.10;59.37;102213.41;5112623;28;20313;-73
2023/08/10 11:47:44;;;;;;;;;;;;;;;26.31;56.43;102215.09;5098445;28;19942;-73
2023/08/10 11:50:11;;;;;;;;;;;;;;;26.89;63.51;102214.38;5089979;28;19946;-74
2023/08/10 11:52:38;;;;;;;;;;;;;;;27.51;55.90;102211.97;5090427;28;20054;-74
2023/08/10 11:55:15;;;;;;;;;;;;;;;28.18;53.19;102216.16;5090431;28;19926;-73
2023/08/10 11:57:42;;;;;;;;;;;;;;;27.98;52.30;102211.72;5090612;28;19927;-74
2023/08/10 12:00:21;;;;;;;;;;;;;;;27.90;48.98;102221.00;5071793;28;19919;-74
2023/08/10 12:03:06;;;;;;;;;;;;;;;27.75;50.21;102213.13;5090015;28;19969;-74
2023/08/10 12:05:34;;;;;;;;;;;;;;;27.64;55.60;102202.03;5071716;28;19920;-74
2023/08/10 12:08:00;;;;;;;;;;;;;;;27.61;49.37;102208.78;5089777;28;20290;-76
2023/08/10 12:10:25;;;;;;;;;;;;;;;27.74;50.22;102203.22;5089131;28;19935;-74
2023/08/10 12:12:57;;;;;;;;;;;;;;;27.80;48.57;102206.97;5090112;28;19916;-75
2023/08/10 12:15:23;;;;;;;;;;;;;;;27.80;52.30;102199.59;5090182;28;19924;-74
2023/08/10 12:17:49;;;;;;;;;;;;;;;27.99;50.77;102196.94;5089779;28;20274;-74
2023/08/10 12:20:14;;;;;;;;;;;;;;;28.28;51.03;102189.13;5089141;28;19934;-74
2023/08/10 12:22:39;;;;;;;;;;;;;;;28.30;49.28;102195.22;5090036;28;20414;-75